Time;durP1;ratioP1;P1;durP2;ratioP2;P2;SDS_P1;SDS_P2;PMS_P1;PMS_P2;Temp;Humidity;BMP_temperature;BMP_pressure;BME280_temperature;BME280_humidity;BME280_pressure;Samples;Min_cycle;Max_cycle;Signal;HPM_P1;HPM_P2
2022/04/24 00:00:13;;;;;;;;;;;13.70;90.40;;;;;;4999951;28;20453;-76
2022/04/24 00:02:40;;;;;;;;;;;13.60;90.30;;;;;;5003273;28;19922;-76
2022/04/24 00:05:07;;;;;;;;;;;13.60;90.70;;;;;;5006461;28;19932;-76
2022/04/24 00:07:35;;;;;;;;;;;13.60;90.70;;;;;;5019943;28;20320;-77
2022/04/24 00:10:02;;;;;;;;;;;13.60;90.80;;;;;;5010047;28;19922;-76
2022/04/24 00:12:29;;;;;;;;;;;13.40;90.80;;;;;;5010684;28;20000;-77
2022/04/24 00:14:56;;;;;;;;;;;13.40;91.10;;;;;;5007582;28;19967;-76
2022/04/24 00:17:22;;;;;;;;;;;15.00;91.90;;;;;;5006280;28;19925;-76
2022/04/24 00:19:49;;;;;;;;;;;13.30;91.20;;;;;;5010936;28;19936;-76
2022/04/24 00:22:16;;;;;;;;;;;13.70;91.60;;;;;;5005240;28;19925;-77
2022/04/24 00:24:44;;;;;;;;;;;13.10;91.50;;;;;;5012299;28;20017;-77
2022/04/24 00:27:11;;;;;;;;;;;13.00;91.30;;;;;;5010155;28;19925;-77
2022/04/24 00:29:38;;;;;;;;;;;12.90;91.50;;;;;;5005820;28;20327;-76
2022/04/24 00:32:05;;;;;;;;;;;12.80;91.50;;;;;;5012039;28;19957;-76
2022/04/24 00:34:32;;;;;;;;;;;12.70;91.70;;;;;;5008825;28;20342;-77
2022/04/24 00:36:59;;;;;;;;;;;12.60;91.70;;;;;;5017764;28;20326;-77
2022/04/24 00:39:25;;;;;;;;;;;12.50;91.60;;;;;;5014189;28;20424;-78
2022/04/24 00:41:54;;;;;;;;;;;12.70;92.00;;;;;;5017343;28;19935;-77
2022/04/24 00:44:21;;;;;;;;;;;12.40;92.30;;;;;;5033348;28;19959;-77
2022/04/24 00:47:09;;;;;;;;;;;12.30;92.40;;;;;;5019668;28;20038;-78
2022/04/24 00:49:36;;;;;;;;;;;12.20;92.30;;;;;;5018050;28;19925;-78
2022/04/24 00:52:03;;;;;;;;;;;12.40;92.60;;;;;;5018919;28;19976;-77
2022/04/24 00:54:30;;;;;;;;;;;12.10;92.20;;;;;;5013486;28;19989;-78
2022/04/24 00:56:58;;;;;;;;;;;12.00;92.30;;;;;;5015696;28;19980;-77
2022/04/24 00:59:25;;;;;;;;;;;12.00;92.70;;;;;;5002424;28;19929;-78
2022/04/24 01:01:52;;;;;;;;;;;11.90;92.70;;;;;;5018926;28;19928;-78
2022/04/24 01:04:19;;;;;;;;;;;11.90;93.00;;;;;;5007330;28;19921;-78
2022/04/24 01:06:46;;;;;;;;;;;11.80;93.00;;;;;;5025700;28;19959;-78
2022/04/24 01:09:13;;;;;;;;;;;11.80;93.00;;;;;;5027168;28;19936;-78
2022/04/24 01:11:40;;;;;;;;;;;11.20;93.00;;;;;;5013475;28;19947;-78
2022/04/24 01:14:08;;;;;;;;;;;11.70;93.40;;;;;;5011797;28;19948;-78
2022/04/24 01:16:35;;;;;;;;;;;11.70;93.50;;;;;;5011451;28;19937;-78
2022/04/24 01:19:02;;;;;;;;;;;11.60;93.70;;;;;;5007885;28;19925;-78
2022/04/24 01:21:30;;;;;;;;;;;11.50;93.80;;;;;;5009758;28;19933;-77
2022/04/24 01:23:57;;;;;;;;;;;11.50;93.60;;;;;;5031607;28;19983;-77
2022/04/24 01:26:24;;;;;;;;;;;11.50;94.00;;;;;;5014928;28;19929;-77
2022/04/24 01:28:50;;;;;;;;;;;11.50;93.90;;;;;;5014046;28;20392;-78
2022/04/24 01:31:17;;;;;;;;;;;11.50;93.70;;;;;;5003992;28;19929;-78
2022/04/24 01:33:45;;;;;;;;;;;11.50;93.90;;;;;;5005666;28;19925;-78
2022/04/24 01:36:12;;;;;;;;;;;11.40;93.90;;;;;;5009069;28;19921;-78
2022/04/24 01:38:40;;;;;;;;;;;11.40;94.00;;;;;;5012971;28;20346;-78
2022/04/24 01:41:06;;;;;;;;;;;11.40;93.80;;;;;;5009424;28;19937;-78
2022/04/24 01:43:33;;;;;;;;;;;11.30;94.20;;;;;;5008612;28;19933;-78
2022/04/24 01:46:00;;;;;;;;;;;11.30;94.20;;;;;;5001397;28;20370;-78
2022/04/24 01:48:28;;;;;;;;;;;10.50;94.00;;;;;;5013812;28;19926;-78
2022/04/24 01:50:54;;;;;;;;;;;11.10;94.30;;;;;;5014727;28;20332;-78
2022/04/24 01:53:21;;;;;;;;;;;11.10;94.80;;;;;;5006229;28;20362;-78
2022/04/24 01:55:49;;;;;;;;;;;11.00;94.60;;;;;;5003186;28;20065;-78
2022/04/24 01:58:16;;;;;;;;;;;11.30;94.90;;;;;;5003531;28;19925;-78
2022/04/24 02:00:43;;;;;;;;;;;10.90;94.90;;;;;;5010348;28;19997;-78
2022/04/24 02:03:09;;;;;;;;;;;10.90;94.90;;;;;;5024447;28;19932;-78
2022/04/24 02:05:36;;;;;;;;;;;11.30;95.50;;;;;;5021901;28;19925;-78
2022/04/24 02:08:03;;;;;;;;;;;10.80;95.10;;;;;;5001789;28;19936;-77
2022/04/24 02:10:30;;;;;;;;;;;10.70;95.10;;;;;;5007095;28;19929;-78
2022/04/24 02:12:58;;;;;;;;;;;10.60;95.50;;;;;;5009748;28;19945;-78
2022/04/24 02:15:25;;;;;;;;;;;10.60;95.70;;;;;;5009533;28;20020;-78
2022/04/24 02:17:52;;;;;;;;;;;10.60;95.60;;;;;;5003870;28;19935;-78
2022/04/24 02:20:19;;;;;;;;;;;10.50;95.30;;;;;;5026759;28;20448;-77
2022/04/24 02:22:46;;;;;;;;;;;10.40;95.40;;;;;;5008198;28;20872;-77
2022/04/24 02:25:13;;;;;;;;;;;10.40;96.00;;;;;;5018236;28;19933;-79
2022/04/24 02:27:40;;;;;;;;;;;10.40;95.80;;;;;;5006648;28;19933;-79
2022/04/24 02:30:09;;;;;;;;;;;10.30;95.90;;;;;;5019561;28;19926;-78
2022/04/24 02:32:35;;;;;;;;;;;10.30;95.90;;;;;;5005237;28;19951;-78
2022/04/24 02:35:02;;;;;;;;;;;10.30;96.20;;;;;;5006001;28;20370;-78
2022/04/24 02:37:32;;;;;;;;;;;10.30;96.10;;;;;;5008909;28;19968;-77
2022/04/24 02:39:58;;;;;;;;;;;10.20;96.20;;;;;;5024127;28;20403;-78
2022/04/24 02:42:25;;;;;;;;;;;10.30;96.20;;;;;;5019771;28;19921;-77
2022/04/24 02:44:52;;;;;;;;;;;10.20;96.20;;;;;;5022109;28;19929;-78
2022/04/24 02:47:20;;;;;;;;;;;10.20;96.30;;;;;;5001709;28;20386;-78
2022/04/24 02:49:46;;;;;;;;;;;10.10;96.20;;;;;;5008299;28;19926;-77
2022/04/24 02:52:13;;;;;;;;;;;10.10;96.40;;;;;;5009254;28;19921;-78
2022/04/24 02:54:40;;;;;;;;;;;10.00;96.60;;;;;;5001225;28;19935;-77
2022/04/24 02:57:07;;;;;;;;;;;10.00;96.60;;;;;;5003603;28;19929;-77
2022/04/24 02:59:34;;;;;;;;;;;10.00;96.50;;;;;;5007976;28;19921;-78
2022/04/24 03:02:00;;;;;;;;;;;10.00;96.50;;;;;;5010723;28;19932;-78
2022/04/24 03:04:28;;;;;;;;;;;9.90;97.10;;;;;;5008797;28;19933;-78
2022/04/24 03:06:55;;;;;;;;;;;9.90;97.10;;;;;;5009894;28;19925;-78
2022/04/24 03:09:22;;;;;;;;;;;9.90;97.40;;;;;;5021210;28;19922;-78
2022/04/24 03:11:49;;;;;;;;;;;9.80;97.60;;;;;;5007677;28;20386;-78
2022/04/24 03:14:15;;;;;;;;;;;9.80;97.50;;;;;;5006870;28;20370;-78
2022/04/24 03:16:42;;;;;;;;;;;9.70;97.70;;;;;;5009884;28;19932;-78
2022/04/24 03:19:09;;;;;;;;;;;9.80;98.10;;;;;;4997093;28;19932;-78
2022/04/24 03:21:37;;;;;;;;;;;9.70;98.10;;;;;;5002135;28;19929;-78
2022/04/24 03:24:04;;;;;;;;;;;9.70;98.10;;;;;;5009598;28;19944;-78
2022/04/24 03:26:31;;;;;;;;;;;9.70;98.10;;;;;;5009442;28;20064;-77
2022/04/24 03:28:58;;;;;;;;;;;9.60;98.10;;;;;;5006993;28;20181;-78
2022/04/24 03:31:24;;;;;;;;;;;9.60;98.20;;;;;;5017794;28;19921;-78
2022/04/24 03:33:52;;;;;;;;;;;9.50;98.20;;;;;;5023803;28;19909;-77
2022/04/24 03:36:18;;;;;;;;;;;9.50;98.40;;;;;;5024512;28;19952;-78
2022/04/24 03:38:46;;;;;;;;;;;9.50;98.60;;;;;;5019161;28;20007;-78
2022/04/24 03:41:13;;;;;;;;;;;9.40;98.90;;;;;;4998589;28;19944;-78
2022/04/24 03:43:40;;;;;;;;;;;9.40;98.80;;;;;;5017685;28;19921;-78
2022/04/24 03:46:06;;;;;;;;;;;9.40;99.00;;;;;;5015277;28;19944;-78
2022/04/24 03:48:33;;;;;;;;;;;9.40;98.90;;;;;;5007138;28;19948;-78
2022/04/24 03:51:01;;;;;;;;;;;9.30;98.50;;;;;;5003703;28;20611;-75
2022/04/24 03:53:27;;;;;;;;;;;9.20;98.80;;;;;;5024266;28;19940;-78
2022/04/24 03:55:55;;;;;;;;;;;9.20;98.90;;;;;;5003925;28;19933;-76
2022/04/24 03:58:22;;;;;;;;;;;9.20;99.00;;;;;;5019046;28;19929;-78
2022/04/24 04:00:49;;;;;;;;;;;9.20;99.20;;;;;;5007121;28;19925;-77
2022/04/24 04:03:16;;;;;;;;;;;9.10;99.50;;;;;;5000821;28;20004;-76
2022/04/24 04:05:43;;;;;;;;;;;9.10;99.40;;;;;;5003905;28;19932;-77
2022/04/24 04:08:10;;;;;;;;;;;9.10;99.40;;;;;;5004866;28;20083;-77
2022/04/24 04:10:36;;;;;;;;;;;9.00;99.90;;;;;;5023192;28;20225;-77
2022/04/24 04:13:07;;;;;;;;;;;9.00;99.90;;;;;;5001041;28;19921;-76
2022/04/24 04:15:35;;;;;;;;;;;9.00;99.90;;;;;;5001548;28;19932;-76
2022/04/24 04:18:01;;;;;;;;;;;9.00;99.90;;;;;;5007085;28;20205;-76
2022/04/24 04:20:28;;;;;;;;;;;8.90;99.90;;;;;;5004417;28;19925;-76
2022/04/24 04:22:55;;;;;;;;;;;9.00;99.90;;;;;;5021791;28;19932;-78
2022/04/24 04:25:23;;;;;;;;;;;9.00;99.90;;;;;;4994368;28;20385;-77
2022/04/24 04:27:50;;;;;;;;;;;8.90;99.90;;;;;;5002961;28;20044;-78
2022/04/24 04:30:18;;;;;;;;;;;8.90;99.90;;;;;;5008254;28;19932;-77
2022/04/24 04:32:45;;;;;;;;;;;8.90;99.90;;;;;;5007479;28;19936;-77
2022/04/24 04:35:12;;;;;;;;;;;9.00;99.90;;;;;;5008194;28;19988;-77
2022/04/24 04:37:39;;;;;;;;;;;9.00;99.90;;;;;;5006364;28;19932;-77
2022/04/24 04:40:07;;;;;;;;;;;9.00;99.90;;;;;;5007523;28;19925;-77
2022/04/24 04:42:34;;;;;;;;;;;9.00;99.90;;;;;;5017440;28;20091;-77
2022/04/24 04:45:00;;;;;;;;;;;9.00;99.90;;;;;;5013021;28;19921;-78
2022/04/24 04:47:28;;;;;;;;;;;9.00;99.90;;;;;;5009879;28;20071;-78
2022/04/24 04:49:55;;;;;;;;;;;9.00;99.90;;;;;;5013272;28;20396;-77
2022/04/24 04:52:22;;;;;;;;;;;9.00;99.90;;;;;;5001535;28;19988;-77
2022/04/24 04:54:50;;;;;;;;;;;9.00;99.90;;;;;;5009619;28;19925;-77
2022/04/24 04:57:16;;;;;;;;;;;8.90;99.90;;;;;;5021686;28;20409;-77
2022/04/24 04:59:43;;;;;;;;;;;9.00;99.90;;;;;;5009609;28;19926;-77
2022/04/24 05:02:10;;;;;;;;;;;9.00;99.90;;;;;;5024878;28;20403;-77
2022/04/24 05:04:43;;;;;;;;;;;9.10;99.90;;;;;;5004084;28;20410;-77
2022/04/24 05:07:10;;;;;;;;;;;9.10;99.90;;;;;;5010716;28;19922;-77
2022/04/24 05:09:36;;;;;;;;;;;9.20;99.90;;;;;;5000673;28;19988;-77
2022/04/24 05:12:04;;;;;;;;;;;9.20;99.90;;;;;;5002394;28;19925;-78
2022/04/24 05:14:30;;;;;;;;;;;9.20;99.90;;;;;;5007917;28;19925;-77
2022/04/24 05:16:57;;;;;;;;;;;9.30;99.90;;;;;;5023383;28;19929;-77
2022/04/24 05:19:25;;;;;;;;;;;9.40;99.90;;;;;;5026350;28;19999;-77
2022/04/24 05:21:53;;;;;;;;;;;9.40;99.90;;;;;;5025470;28;19936;-77
2022/04/24 05:24:20;;;;;;;;;;;9.60;99.90;;;;;;5007190;28;19970;-77
2022/04/24 05:26:46;;;;;;;;;;;9.60;99.90;;;;;;5006593;28;20317;-77
2022/04/24 05:29:14;;;;;;;;;;;9.80;99.90;;;;;;5018155;28;19964;-77
2022/04/24 05:31:41;;;;;;;;;;;9.90;99.90;;;;;;5006538;28;19921;-77
2022/04/24 05:34:07;;;;;;;;;;;10.10;99.90;;;;;;5008024;28;19925;-77
2022/04/24 05:36:34;;;;;;;;;;;10.50;99.90;;;;;;5023971;28;19922;-76
2022/04/24 05:39:03;;;;;;;;;;;11.50;99.90;;;;;;5007732;28;19925;-77
2022/04/24 05:41:29;;;;;;;;;;;12.40;99.90;;;;;;5019672;28;19933;-77
2022/04/24 05:43:56;;;;;;;;;;;13.60;99.90;;;;;;5008119;28;19929;-77
2022/04/24 05:46:23;;;;;;;;;;;14.10;99.90;;;;;;5005437;28;19925;-77
2022/04/24 05:48:50;;;;;;;;;;;15.00;99.90;;;;;;5006122;28;19933;-76
2022/04/24 05:51:16;;;;;;;;;;;17.10;99.80;;;;;;5006770;28;19932;-77
2022/04/24 05:53:43;;;;;;;;;;;17.80;98.80;;;;;;5020166;28;19977;-77
2022/04/24 05:56:11;;;;;;;;;;;16.50;97.50;;;;;;5008517;28;20008;-78
2022/04/24 05:58:38;;;;;;;;;;;17.00;96.70;;;;;;5007110;28;19925;-78
2022/04/24 06:01:04;;;;;;;;;;;17.80;95.60;;;;;;5007591;28;19921;-78
2022/04/24 06:03:31;;;;;;;;;;;18.10;94.90;;;;;;5022686;28;20011;-78
2022/04/24 06:05:58;;;;;;;;;;;18.20;93.90;;;;;;5004747;28;19925;-78
2022/04/24 06:08:25;;;;;;;;;;;18.80;95.10;;;;;;5008123;28;19929;-78
2022/04/24 06:10:51;;;;;;;;;;;18.70;93.20;;;;;;5006743;28;19926;-78
2022/04/24 06:13:20;;;;;;;;;;;19.00;93.10;;;;;;5006266;28;20446;-78
2022/04/24 06:15:47;;;;;;;;;;;19.30;91.90;;;;;;5013333;28;20205;-78
2022/04/24 06:18:14;;;;;;;;;;;19.40;92.00;;;;;;5015089;28;19948;-78
2022/04/24 06:20:43;;;;;;;;;;;19.40;92.00;;;;;;5006810;28;19932;-78
2022/04/24 06:23:10;;;;;;;;;;;19.80;91.20;;;;;;5010666;28;19925;-78
2022/04/24 06:25:38;;;;;;;;;;;20.00;90.70;;;;;;5012342;28;19921;-79
2022/04/24 06:28:05;;;;;;;;;;;20.40;91.70;;;;;;5008384;28;19929;-79
2022/04/24 06:30:35;;;;;;;;;;;20.70;90.50;;;;;;5011317;28;19988;-79
2022/04/24 06:33:02;;;;;;;;;;;21.00;89.90;;;;;;5012704;28;20431;-78
2022/04/24 06:35:28;;;;;;;;;;;21.30;90.20;;;;;;5015881;28;19928;-79
2022/04/24 06:37:55;;;;;;;;;;;21.90;90.30;;;;;;5023862;28;19971;-78
2022/04/24 06:40:23;;;;;;;;;;;22.60;89.50;;;;;;5006206;28;19948;-78
2022/04/24 06:42:51;;;;;;;;;;;23.40;87.10;;;;;;5032510;28;19944;-78
2022/04/24 06:45:18;;;;;;;;;;;23.40;84.70;;;;;;5012867;28;20337;-78
2022/04/24 06:47:46;;;;;;;;;;;23.20;83.50;;;;;;5028426;28;19925;-79
2022/04/24 06:50:13;;;;;;;;;;;23.10;83.80;;;;;;5006681;28;20294;-79
2022/04/24 06:52:40;;;;;;;;;;;22.90;82.80;;;;;;5009147;28;20425;-79
2022/04/24 06:55:07;;;;;;;;;;;23.00;82.70;;;;;;5023300;28;19932;-78
2022/04/24 06:57:34;;;;;;;;;;;23.10;81.50;;;;;;5004341;28;19922;-78
2022/04/24 07:00:00;;;;;;;;;;;23.50;81.70;;;;;;5021336;28;19936;-78
2022/04/24 07:02:27;;;;;;;;;;;23.60;79.80;;;;;;5007681;28;19925;-79
2022/04/24 07:04:55;;;;;;;;;;;23.30;79.20;;;;;;5008189;28;20417;-79
2022/04/24 07:07:22;;;;;;;;;;;23.50;79.80;;;;;;5020205;28;19988;-79
2022/04/24 07:09:49;;;;;;;7.17;4.87;;;23.60;80.20;;;;;;5010412;28;20810;-79
2022/04/24 07:12:15;;;;;;;5.80;4.83;;;23.70;80.00;;;;;;5010428;28;20340;-79
2022/04/24 07:14:42;;;;;;;6.60;5.50;;;24.40;81.20;;;;;;5008868;28;20236;-78
2022/04/24 07:17:09;;;;;;;6.13;4.97;;;24.30;80.10;;;;;;5022010;28;20220;-79
2022/04/24 07:19:36;;;;;;;5.70;5.10;;;24.10;77.00;;;;;;5004153;28;20213;-78
2022/04/24 07:22:04;;;;;;;6.20;5.47;;;24.10;76.50;;;;;;5021384;28;20208;-79
2022/04/24 07:24:31;;;;;;;8.90;5.20;;;24.00;76.60;;;;;;5023145;28;20243;-78
2022/04/24 07:26:58;;;;;;;6.40;4.93;;;24.50;79.10;;;;;;5009103;28;20313;-78
2022/04/24 07:29:25;;;;;;;6.10;4.90;;;25.00;77.70;;;;;;5013074;28;20279;-79
2022/04/24 07:31:53;;;;;;;6.40;5.03;;;25.20;76.10;;;;;;5020737;28;20226;-78
2022/04/24 07:34:20;;;;;;;6.60;5.63;;;25.10;76.00;;;;;;5007372;28;20228;-78
2022/04/24 07:36:47;;;;;;;6.20;4.80;;;24.90;75.20;;;;;;5007958;28;20206;-79
2022/04/24 07:39:15;;;;;;;7.63;5.10;;;25.20;76.20;;;;;;5010191;28;20224;-78
2022/04/24 07:41:42;;;;;;;7.15;5.57;;;26.00;76.20;;;;;;5018110;28;20214;-78
2022/04/24 07:44:09;;;;;;;6.95;5.93;;;26.70;73.40;;;;;;5014503;28;20352;-78
2022/04/24 07:46:36;;;;;;;8.57;5.70;;;26.20;70.30;;;;;;5014415;28;20220;-78
2022/04/24 07:49:03;;;;;;;8.68;5.85;;;25.30;71.70;;;;;;5005040;28;20199;-79
2022/04/24 07:51:29;;;;;;;8.17;6.00;;;24.70;72.00;;;;;;5010220;28;20225;-79
2022/04/24 07:53:56;;;;;;;8.33;5.77;;;24.70;72.30;;;;;;5008710;28;20242;-78
2022/04/24 07:56:25;;;;;;;7.93;5.93;;;24.60;72.00;;;;;;5008266;28;20695;-78
2022/04/24 07:58:52;;;;;;;9.17;6.40;;;24.50;72.20;;;;;;5005725;28;20267;-79
2022/04/24 08:01:18;;;;;;;8.27;5.90;;;24.40;72.60;;;;;;5008177;28;20205;-78
2022/04/24 08:03:46;;;;;;;8.40;5.53;;;23.90;71.50;;;;;;5008137;28;20313;-79
2022/04/24 08:06:13;;;;;;;9.13;5.90;;;23.60;72.00;;;;;;5008284;28;20210;-78
2022/04/24 08:08:39;;;;;;;8.70;6.53;;;23.20;73.60;;;;;;5030984;28;20215;-79
2022/04/24 08:11:06;;;;;;;8.95;6.53;;;23.10;74.90;;;;;;5006796;28;20226;-79
2022/04/24 08:13:35;;;;;;;11.13;6.23;;;23.40;73.50;;;;;;5014026;28;20230;-79
2022/04/24 08:16:02;;;;;;;9.65;6.10;;;23.10;74.40;;;;;;5012714;28;20214;-79
2022/04/24 08:18:29;;;;;;;8.02;5.32;;;23.20;75.30;;;;;;5013161;28;20266;-80
2022/04/24 08:20:57;;;;;;;7.47;5.68;;;23.30;74.40;;;;;;5007942;28;20211;-79
2022/04/24 08:23:25;;;;;;;7.30;4.87;;;22.90;73.40;;;;;;5011810;28;20236;-79
2022/04/24 08:25:52;;;;;;;12.07;5.90;;;22.60;73.30;;;;;;5008926;28;20283;-79
2022/04/24 08:28:25;;;;;;;7.90;5.50;;;22.30;73.70;;;;;;5013084;28;20206;-81
2022/04/24 08:30:55;;;;;;;9.60;5.97;;;22.40;74.00;;;;;;5015481;28;20865;-80
2022/04/24 08:33:22;;;;;;;7.75;5.90;;;22.00;74.80;;;;;;5030245;28;20695;-82
2022/04/24 08:35:49;;;;;;;8.35;6.13;;;22.10;75.40;;;;;;5030280;28;20218;-81
2022/04/24 08:38:16;;;;;;;7.57;6.20;;;21.90;75.00;;;;;;5015433;28;20206;-82
2022/04/24 08:40:43;;;;;;;9.07;5.93;;;22.50;76.30;;;;;;5015357;28;20249;-82
2022/04/24 08:43:10;;;;;;;7.57;5.82;;;22.00;75.00;;;;;;5019331;28;20442;-81
2022/04/24 08:45:41;;;;;;;8.23;6.43;;;22.10;74.40;;;;;;5012104;28;20211;-81
2022/04/24 08:48:10;;;;;;;8.57;5.80;;;22.70;78.10;;;;;;5029873;28;20674;-82
2022/04/24 08:50:38;;;;;;;11.40;6.13;;;22.90;77.60;;;;;;5017037;28;20222;-78
2022/04/24 08:53:07;;;;;;;8.48;6.07;;;22.80;73.40;;;;;;5019581;28;20273;-79
2022/04/24 08:55:34;;;;;;;11.88;6.72;;;22.50;74.40;;;;;;5011860;28;20289;-78
2022/04/24 08:58:01;;;;;;;12.18;6.03;;;22.20;74.30;;;;;;5010312;28;20206;-78
2022/04/24 09:00:29;;;;;;;9.15;6.15;;;22.00;74.80;;;;;;4999328;28;20680;-78
2022/04/24 09:02:57;;;;;;;9.07;7.07;;;22.10;75.50;;;;;;5010168;28;20295;-79
2022/04/24 09:05:26;;;;;;;10.00;6.30;;;21.90;74.60;;;;;;5009006;28;20195;-79
2022/04/24 09:07:55;;;;;;;8.38;6.10;;;22.00;75.60;;;;;;5028068;28;20245;-79
2022/04/24 09:10:22;;;;;;;10.48;6.30;;;21.80;75.40;;;;;;5010906;28;20214;-78
2022/04/24 09:12:54;;;;;;;7.82;6.43;;;21.70;76.30;;;;;;5011680;28;20234;-78
2022/04/24 09:15:21;;;;;;;9.32;6.55;;;21.80;75.70;;;;;;5014326;28;20226;-77
2022/04/24 09:17:59;;;;;;;7.32;6.43;;;21.70;74.20;;;;;;5015304;28;20699;-77
2022/04/24 09:20:28;;;;;;;8.20;7.00;;;21.40;76.10;;;;;;5006830;28;20249;-79
2022/04/24 09:23:03;;;;;;;9.05;6.57;;;21.20;75.30;;;;;;5011662;28;20743;-79
2022/04/24 09:25:38;;;;;;;10.20;6.35;;;21.30;75.90;;;;;;4996458;28;20536;-79
2022/04/24 09:28:06;;;;;;;8.30;5.90;;;21.40;76.30;;;;;;5006028;28;20515;-79
2022/04/24 09:30:35;;;;;;;9.00;6.63;;;21.20;75.20;;;;;;5027630;28;20210;-78
2022/04/24 09:33:03;;;;;;;8.73;6.50;;;20.80;75.80;;;;;;5007160;28;20237;-79
2022/04/24 09:35:33;;;;;;;9.83;6.53;;;20.60;76.10;;;;;;5003587;28;20234;-79
2022/04/24 09:38:10;;;;;;;9.73;6.90;;;20.30;76.40;;;;;;5007227;28;20221;-79
2022/04/24 09:40:41;;;;;;;9.00;6.30;;;20.10;76.80;;;;;;4997442;28;20238;-79
2022/04/24 09:43:12;;;;;;;10.23;6.20;;;20.30;76.30;;;;;;4995401;28;20285;-78
2022/04/24 09:45:41;;;;;;;11.63;7.90;;;19.50;76.90;;;;;;5008956;28;20637;-79
2022/04/24 09:48:14;;;;;;;12.47;7.47;;;19.00;77.60;;;;;;4992559;28;20299;-79
2022/04/24 09:50:42;;;;;;;10.40;7.70;;;18.50;78.20;;;;;;4998281;28;20206;-77
2022/04/24 09:53:13;;;;;;;12.20;6.50;;;18.10;78.90;;;;;;5002109;28;20860;-78
2022/04/24 09:55:40;;;;;;;;;;;18.00;79.70;;;;;;5002988;28;20276;-77
2022/04/24 09:58:08;;;;;;;;;;;17.80;79.60;;;;;;5005173;28;20202;-77
2022/04/24 10:00:34;;;;;;;;;;;17.60;80.00;;;;;;5007465;28;19926;-77
2022/04/24 10:03:02;;;;;;;;;;;17.50;80.90;;;;;;5003030;28;19961;-78
2022/04/24 10:05:30;;;;;;;;;;;17.40;80.30;;;;;;5019815;28;20371;-77
2022/04/24 10:07:58;;;;;;;;;;;17.40;81.30;;;;;;5008314;28;20291;-77
2022/04/24 10:10:25;;;;;;;;;;;17.50;82.10;;;;;;5011286;28;19925;-77
2022/04/24 10:12:53;;;;;;;;;;;17.70;81.50;;;;;;5007634;28;20009;-78
2022/04/24 10:15:21;;;;;;;;;;;17.70;81.10;;;;;;5010238;28;19925;-81
2022/04/24 10:17:57;;;;;;;;;;;17.70;81.30;;;;;;5011020;28;19921;-80
2022/04/24 10:20:30;;;;;;;;;;;17.70;81.90;;;;;;5007401;28;19932;-79
2022/04/24 10:23:00;;;;;;;;;;;17.80;81.90;;;;;;5003928;28;20031;-80
2022/04/24 10:25:30;;;;;;;;;;;17.90;81.90;;;;;;5012313;28;20220;-80
2022/04/24 10:27:58;;;;;;;;;;;17.90;81.90;;;;;;5006500;28;20021;-80
2022/04/24 10:30:26;;;;;;;;;;;18.00;81.80;;;;;;5010561;28;20000;-80
2022/04/24 10:33:13;;;;;;;;;;;18.10;81.30;;;;;;5011017;28;20393;-79
2022/04/24 10:35:46;;;;;;;;;;;18.00;80.90;;;;;;5011531;28;19925;-79
2022/04/24 10:38:15;;;;;;;;;;;18.00;81.70;;;;;;5018435;28;19929;-80
2022/04/24 10:40:41;;;;;;;;;;;18.00;80.80;;;;;;5020598;28;19928;-81
2022/04/24 10:43:08;;;;;;;;;;;17.90;81.00;;;;;;5032253;28;19936;-80
2022/04/24 10:45:45;;;;;;;;;;;18.00;81.20;;;;;;5010557;28;19937;-80
2022/04/24 10:48:14;;;;;;;;;;;18.10;81.70;;;;;;5002146;28;19952;-80
2022/04/24 10:50:47;;;;;;;;;;;18.20;81.90;;;;;;5006858;28;19929;-79
2022/04/24 10:53:15;;;;;;;;;;;18.40;81.50;;;;;;5012559;28;20011;-79
2022/04/24 10:55:42;;;;;;;;;;;18.60;81.20;;;;;;5018014;28;20330;-79
2022/04/24 10:58:10;;;;;;;;;;;19.20;81.80;;;;;;5010445;28;20016;-79
2022/04/24 11:00:38;;;;;;;;;;;18.80;80.50;;;;;;5027426;28;19948;-81
2022/04/24 11:03:07;;;;;;;;;;;19.00;80.70;;;;;;5006946;28;19995;-80
2022/04/24 11:05:37;;;;;;;;;;;19.10;80.40;;;;;;5025859;28;19993;-80
2022/04/24 11:08:05;;;;;;;;;;;19.20;80.20;;;;;;5011325;28;19976;-80
2022/04/24 11:10:39;;;;;;;;;;;19.30;79.90;;;;;;5000362;28;19926;-80
2022/04/24 11:13:08;;;;;;;;;;;19.30;79.60;;;;;;5009097;28;19925;-80
2022/04/24 11:15:37;;;;;;;;;;;19.50;78.50;;;;;;5013009;28;19932;-81
2022/04/24 11:18:05;;;;;;;;;;;19.60;78.70;;;;;;5009985;28;20108;-80
2022/04/24 11:20:33;;;;;;;;;;;19.60;78.50;;;;;;5011948;28;19925;-80
2022/04/24 11:22:59;;;;;;;;;;;19.60;78.80;;;;;;5007260;28;19925;-80
2022/04/24 11:25:27;;;;;;;;;;;19.60;78.70;;;;;;5009404;28;19932;-80
2022/04/24 11:27:56;;;;;;;;;;;19.60;78.00;;;;;;5010797;28;19964;-80
2022/04/24 11:30:26;;;;;;;;;;;19.80;78.50;;;;;;5030996;28;20063;-82
2022/04/24 11:32:57;;;;;;;;;;;19.80;76.70;;;;;;5025377;28;20019;-80
2022/04/24 11:35:24;;;;;;;;;;;19.80;77.20;;;;;;5013654;28;19925;-83
2022/04/24 11:37:51;;;;;;;;;;;20.10;77.10;;;;;;5027606;28;19921;-82
2022/04/24 11:40:18;;;;;;;;;;;20.50;78.60;;;;;;5012166;28;20056;-80
2022/04/24 11:42:45;;;;;;;;;;;20.90;75.00;;;;;;5007221;28;20001;-79
2022/04/24 11:50:51;;;;;;;;;;;20.60;75.90;;;;;;5009913;28;19921;-79
2022/04/24 11:53:19;;;;;;;;;;;20.60;75.50;;;;;;5010649;28;20545;-79
2022/04/24 11:56:04;;;;;;;;;;;20.80;74.80;;;;;;5022654;28;19979;-81
2022/04/24 11:58:34;;;;;;;;;;;21.00;73.10;;;;;;5013187;28;19930;-82
2022/04/24 12:01:04;;;;;;;;;;;20.60;73.10;;;;;;5012781;28;19964;-80
2022/04/24 12:03:32;;;;;;;;;;;20.30;73.80;;;;;;5013604;28;19930;-80
2022/04/24 12:13:23;;;;;;;;;;;;;;;;;;;;;
2022/04/24 12:16:32;;;;;;;;;;;20.80;73.10;;;;;;5032255;28;19913;-89
2022/04/24 12:22:20;;;;;;;;;;;;;;;;;;5033723;28;19975;-86
2022/04/24 12:38:45;;;;;;;;;;;22.40;67.20;;;;;;5001611;28;19909;-86
2022/04/24 12:41:46;;;;;;;;;;;22.20;67.10;;;;;;4975830;28;19990;-86
2022/04/24 12:45:08;;;;;;;;;;;22.00;67.60;;;;;;4970483;28;19926;-87
2022/04/24 12:48:23;;;;;;;;;;;22.00;68.80;;;;;;5035623;28;19916;-87
2022/04/24 12:52:03;;;;;;;;;;;21.50;68.90;;;;;;5028356;28;19980;-86
2022/04/24 13:15:31;;;;;;;;;;;21.20;70.90;;;;;;4866759;29;19911;-84
2022/04/24 13:19:01;;;;;;;;;;;;;;;;;;;;;
2022/04/24 13:22:09;;;;;;;;;;;21.20;69.30;;;;;;4857923;29;19942;-86
2022/04/24 13:24:46;;;;;;;;;;;21.30;68.60;;;;;;4920183;28;19936;-86
2022/04/24 14:04:29;;;;;;;;;;;21.10;68.50;;;;;;4973108;28;19933;-83
2022/04/24 14:14:25;;;;;;;;;;;20.80;69.40;;;;;;4961484;29;19911;-82
2022/04/24 14:17:35;;;;;;;;;;;20.80;69.80;;;;;;5029496;28;19964;-82
2022/04/24 14:21:02;;;;;;;;;;;20.20;69.20;;;;;;5033341;28;19943;-82
2022/04/24 14:24:05;;;;;;;;;;;20.20;69.70;;;;;;5026083;28;19921;-80
2022/04/24 14:27:43;;;;;;;;;;;19.90;70.50;;;;;;5014805;28;19991;-83
2022/04/24 14:33:46;;;;;;;;;;;;;;;;;;;;;
2022/04/24 14:42:34;;;;;;;;;;;21.80;70.40;;;;;;5015462;28;19925;-82
2022/04/24 14:56:48;;;;;;;;;;;20.90;67.60;;;;;;5030272;22;19941;-73
2022/04/24 14:59:16;;;;;;;;;;;20.70;68.40;;;;;;5011318;28;19929;-73
2022/04/24 15:01:44;;;;;;;;;;;20.50;68.30;;;;;;5006475;28;20287;-73
2022/04/24 15:04:11;;;;;;;;;;;20.50;68.40;;;;;;5007161;28;19926;-73
2022/04/24 15:06:38;;;;;;;;;;;20.20;68.40;;;;;;5005575;28;19925;-73
2022/04/24 15:09:05;;;;;;;;;;;20.40;69.00;;;;;;4982998;28;19949;-71
2022/04/24 15:11:32;;;;;;;;;;;20.40;69.10;;;;;;5006753;28;19925;-71
2022/04/24 15:13:59;;;;;;;;;;;20.40;69.20;;;;;;5007085;28;19926;-74
2022/04/24 15:16:27;;;;;;;;;;;20.40;69.90;;;;;;5006901;28;20008;-72
2022/04/24 15:18:54;;;;;;;;;;;20.30;70.30;;;;;;5007077;28;19925;-72
2022/04/24 15:21:21;;;;;;;;;;;20.00;69.60;;;;;;4991047;28;20012;-72
2022/04/24 15:23:49;;;;;;;;;;;19.80;69.80;;;;;;4996137;28;19928;-72
2022/04/24 15:26:16;;;;;;;;;;;19.70;70.30;;;;;;4990071;28;19968;-72
2022/04/24 15:28:43;;;;;;;;;;;19.70;70.50;;;;;;5006149;28;20011;-72
2022/04/24 15:31:10;;;;;;;;;;;19.70;70.50;;;;;;4981595;28;19925;-72
2022/04/24 15:33:38;;;;;;;;;;;19.60;71.00;;;;;;4984975;28;19926;-72
2022/04/24 15:36:05;;;;;;;;;;;19.30;69.90;;;;;;5005715;28;19925;-72
2022/04/24 15:38:32;;;;;;;;;;;19.20;70.80;;;;;;5006169;28;20020;-72
2022/04/24 15:40:59;;;;;;;;;;;19.00;71.00;;;;;;5006003;28;20561;-74
2022/04/24 15:43:26;;;;;;;;;;;18.80;71.50;;;;;;5007347;28;20039;-77
2022/04/24 15:45:53;;;;;;;;;;;18.90;71.20;;;;;;4989794;28;19960;-74
2022/04/24 15:48:21;;;;;;;;;;;18.80;72.00;;;;;;5007077;28;20033;-76
2022/04/24 15:50:49;;;;;;;;;;;18.70;71.70;;;;;;5006086;28;20473;-77
2022/04/24 15:53:17;;;;;;;;;;;18.70;72.60;;;;;;5000437;28;19992;-71
2022/04/24 15:55:44;;;;;;;;;;;18.70;72.00;;;;;;5004910;28;19935;-72
2022/04/24 15:58:11;;;;;;;;;;;18.70;72.70;;;;;;5003051;28;20324;-71
2022/04/24 16:00:40;;;;;;;;;;;18.70;73.60;;;;;;5002070;28;19925;-72
2022/04/24 16:03:07;;;;;;;;;;;18.90;73.90;;;;;;5008632;28;19925;-73
2022/04/24 16:05:34;;;;;;;;;;;19.00;74.00;;;;;;5008726;28;20616;-71
2022/04/24 16:08:03;;;;;;;;;;;19.20;73.50;;;;;;5005009;28;20342;-72
2022/04/24 16:10:29;;;;;;;;;;;19.30;74.00;;;;;;5006248;28;20016;-72
2022/04/24 16:12:56;;;;;;;;;;;19.40;74.20;;;;;;5004734;28;19930;-72